Time;durP1;ratioP1;P1;durP2;ratioP2;P2;SDS_P1;SDS_P2;PMS_P1;PMS_P2;Temp;Humidity;BMP_temperature;BMP_pressure;BME280_temperature;BME280_humidity;BME280_pressure;Samples;Min_cycle;Max_cycle;Signal;HPM_P1;HPM_P2
2021/12/28 00:01:14;;;;;;;15.60;10.95;;;;;;;8.21;100.00;94420.44;5052866;28;20202;-75
2021/12/28 00:03:43;;;;;;;18.45;11.18;;;;;;;8.12;100.00;94434.25;5052319;28;20268;-74
2021/12/28 00:06:11;;;;;;;15.90;11.43;;;;;;;8.29;100.00;94435.38;5050058;28;20206;-74
2021/12/28 00:08:38;;;;;;;14.57;10.48;;;;;;;8.31;100.00;94436.16;5052165;28;20195;-74
2021/12/28 00:11:07;;;;;;;14.57;11.00;;;;;;;8.33;100.00;94424.31;5053821;28;20235;-74
2021/12/28 00:13:35;;;;;;;15.35;9.95;;;;;;;8.26;100.00;94427.88;5055452;28;20681;-74
2021/12/28 00:16:23;;;;;;;15.52;10.27;;;;;;;8.34;100.00;94438.63;5054064;28;20230;-74
2021/12/28 00:18:49;;;;;;;14.40;10.32;;;;;;;8.33;100.00;94431.91;5056429;28;20213;-74
2021/12/28 00:21:16;;;;;;;13.73;10.50;;;;;;;8.34;100.00;94436.91;5056753;28;20236;-74
2021/12/28 00:23:43;;;;;;;11.32;9.25;;;;;;;8.22;100.00;94434.75;5057204;28;20207;-74
2021/12/28 00:26:15;;;;;;;21.10;9.48;;;;;;;8.36;100.00;94441.91;5056259;28;20267;-74
2021/12/28 00:28:45;;;;;;;11.57;8.95;;;;;;;8.36;100.00;94434.31;5056682;28;21324;-74
2021/12/28 00:31:14;;;;;;;15.88;10.48;;;;;;;8.24;100.00;94434.69;5056032;28;20206;-74
2021/12/28 00:33:42;;;;;;;14.65;10.25;;;;;;;8.18;100.00;94431.50;5056669;28;20261;-74
2021/12/28 00:36:09;;;;;;;13.38;9.88;;;;;;;8.36;100.00;94430.09;5055751;28;20667;-74
2021/12/28 00:38:35;;;;;;;14.55;10.55;;;;;;;8.28;100.00;94436.25;5058067;28;20207;-74
2021/12/28 00:41:04;;;;;;;16.77;10.02;;;;;;;8.51;100.00;94431.25;5057403;28;20194;-74
2021/12/28 00:43:33;;;;;;;16.77;10.73;;;;;;;8.52;100.00;94427.81;5056559;28;20232;-74
2021/12/28 00:46:00;;;;;;;13.98;10.98;;;;;;;8.58;100.00;94439.44;5056785;28;20264;-74
2021/12/28 00:48:27;;;;;;;12.43;9.90;;;;;;;8.67;99.21;94434.88;5056359;28;20203;-74
2021/12/28 00:50:53;;;;;;;12.93;10.02;;;;;;;8.74;99.34;94431.22;5057078;28;20203;-74
2021/12/28 00:53:21;;;;;;;16.88;10.65;;;;;;;8.91;97.38;94434.88;5055207;28;20280;-74
2021/12/28 00:55:47;;;;;;;11.18;9.98;;;;;;;8.55;98.74;94435.31;5057652;28;20310;-74
2021/12/28 00:58:14;;;;;;;15.07;9.15;;;;;;;8.63;99.67;94432.53;5055898;28;20256;-75
2021/12/28 01:00:43;;;;;;;18.50;10.00;;;;;;;8.78;98.61;94427.72;5056388;28;20206;-74
2021/12/28 01:03:10;;;;;;;13.30;9.65;;;;;;;8.68;98.39;94433.16;5055276;28;20291;-74
2021/12/28 01:05:39;;;;;;;13.65;10.27;;;;;;;8.52;99.17;94445.56;5056722;28;20272;-74
2021/12/28 01:08:06;;;;;;;14.85;10.20;;;;;;;8.54;99.64;94438.72;5056116;28;20211;-74
2021/12/28 01:10:37;;;;;;;15.38;9.50;;;;;;;8.48;99.71;94439.78;5056126;28;20674;-74
2021/12/28 01:13:04;;;;;;;11.85;10.35;;;;;;;8.57;99.51;94436.09;5055626;28;20704;-74
2021/12/28 01:15:32;;;;;;;12.73;10.02;;;;;;;8.68;99.02;94439.06;5054798;28;20729;-74
2021/12/28 01:18:00;;;;;;;12.80;9.52;;;;;;;8.58;98.73;94437.75;5057455;28;20207;-74
2021/12/28 01:20:28;;;;;;;13.55;9.68;;;;;;;8.59;98.93;94436.88;5056120;28;20256;-74
2021/12/28 01:22:55;;;;;;;12.30;9.57;;;;;;;8.59;99.03;94447.00;5055071;28;20217;-74
2021/12/28 01:25:23;;;;;;;12.43;9.05;;;;;;;8.63;98.57;94443.47;5056212;28;20199;-74
2021/12/28 01:27:50;;;;;;;13.48;10.45;;;;;;;8.75;97.95;94448.09;5054349;28;20202;-74
2021/12/28 01:30:20;;;;;;;14.85;10.48;;;;;;;8.68;98.35;94446.66;5056518;28;20209;-74
2021/12/28 01:32:47;;;;;;;16.02;10.52;;;;;;;8.84;97.78;94442.69;5054849;28;20692;-74
2021/12/28 01:35:16;;;;;;;14.23;10.43;;;;;;;8.82;96.87;94446.16;5056736;28;20274;-74
2021/12/28 01:37:44;;;;;;;15.23;10.15;;;;;;;8.79;97.27;94436.97;5056083;28;20260;-74
2021/12/28 01:40:13;;;;;;;12.40;9.50;;;;;;;8.83;97.28;94452.88;5054907;28;20704;-74
2021/12/28 01:43:00;;;;;;;13.88;10.73;;;;;;;8.43;98.21;94436.56;5054824;28;20641;-74
2021/12/28 01:45:36;;;;;;;15.65;10.73;;;;;;;8.51;99.13;94443.91;5055967;28;20292;-74
2021/12/28 01:48:03;;;;;;;16.00;10.77;;;;;;;8.58;98.29;94440.28;5054909;28;20672;-74
2021/12/28 01:50:32;;;;;;;12.95;9.70;;;;;;;8.59;97.97;94441.94;5054020;28;20244;-74
2021/12/28 01:52:59;;;;;;;17.83;10.73;;;;;;;8.30;99.77;94442.91;5055210;28;20284;-74
2021/12/28 01:55:26;;;;;;;14.13;10.50;;;;;;;8.36;100.00;94449.50;5055057;28;20225;-74
2021/12/28 01:57:53;;;;;;;15.45;10.80;;;;;;;8.24;100.00;94445.66;5055560;28;20282;-74
2021/12/28 02:00:20;;;;;;;16.63;11.02;;;;;;;8.02;100.00;94432.91;5054407;28;20202;-74
2021/12/28 02:02:47;;;;;;;15.90;10.85;;;;;;;8.13;100.00;94443.50;5055987;28;20202;-74
2021/12/28 02:05:14;;;;;;;14.48;10.35;;;;;;;8.01;100.00;94435.50;5054404;28;20206;-76
2021/12/28 02:07:42;;;;;;;14.48;10.48;;;;;;;8.08;100.00;94420.06;5055331;28;20199;-73
2021/12/28 02:10:10;;;;;;;14.82;11.25;;;;;;;8.21;100.00;94430.56;5052487;28;21042;-74
2021/12/28 02:12:37;;;;;;;12.70;10.70;;;;;;;8.30;100.00;94434.50;5053161;28;20624;-74
2021/12/28 02:15:12;;;;;;;13.20;9.85;;;;;;;8.55;99.56;94430.25;5052274;28;20203;-74
2021/12/28 02:17:39;;;;;;;14.30;10.02;;;;;;;8.46;99.31;94430.56;5053132;28;20323;-74
2021/12/28 02:20:10;;;;;;;14.57;11.07;;;;;;;8.44;99.09;94417.13;5052423;28;20213;-74
2021/12/28 02:22:37;;;;;;;13.52;11.00;;;;;;;8.60;98.84;94433.47;5053592;28;20279;-74
2021/12/28 02:25:05;;;;;;;14.30;11.02;;;;;;;8.57;98.77;94431.03;5053491;28;20625;-74
2021/12/28 02:27:32;;;;;;;14.70;10.50;;;;;;;8.66;98.17;94420.53;5054618;28;20668;-74
2021/12/28 02:29:59;;;;;;;16.33;11.23;;;;;;;8.80;97.36;94428.47;5054550;28;20251;-74
2021/12/28 02:32:27;;;;;;;13.73;10.98;;;;;;;8.51;98.08;94421.09;5053940;28;20275;-74
2021/12/28 02:34:55;;;;;;;18.50;11.75;;;;;;;8.49;99.00;94420.34;5054495;28;20203;-74
2021/12/28 02:37:24;;;;;;;13.88;11.05;;;;;;;8.25;99.83;94421.16;5054205;28;20237;-74
2021/12/28 02:39:51;;;;;;;17.15;11.32;;;;;;;8.41;99.98;94419.81;5055235;28;20206;-74
2021/12/28 02:42:19;;;;;;;14.50;11.38;;;;;;;8.41;98.99;94412.22;5054228;28;20209;-74
2021/12/28 02:44:46;;;;;;;13.23;10.18;;;;;;;8.55;99.33;94415.06;5054240;28;20733;-74
2021/12/28 02:47:17;;;;;;;17.30;11.50;;;;;;;8.76;97.34;94423.59;5053668;28;20751;-74
2021/12/28 02:49:44;;;;;;;13.55;10.65;;;;;;;8.66;97.47;94417.22;5054845;28;20257;-74
2021/12/28 02:52:10;;;;;;;13.07;11.02;;;;;;;8.65;98.62;94416.41;5054117;28;20195;-76
2021/12/28 02:54:40;;;;;;;14.07;11.02;;;;;;;8.69;97.85;94422.97;5054912;28;20203;-76
2021/12/28 02:57:07;;;;;;;13.85;10.45;;;;;;;8.56;98.23;94426.84;5054534;28;20300;-75
2021/12/28 02:59:34;;;;;;;10.77;9.20;;;;;;;8.64;98.47;94419.81;5053216;28;20291;-75
2021/12/28 03:02:01;;;;;;;14.30;10.18;;;;;;;8.50;98.50;94422.00;5054993;28;20252;-75
2021/12/28 03:04:27;;;;;;;9.88;8.88;;;;;;;8.70;98.53;94426.34;5054835;28;21170;-76
2021/12/28 03:06:55;;;;;;;11.95;9.57;;;;;;;8.68;97.42;94421.31;5053429;28;20203;-75
2021/12/28 03:09:23;;;;;;;12.80;10.52;;;;;;;8.86;97.44;94432.50;5053921;28;20225;-76
2021/12/28 03:11:51;;;;;;;16.85;10.15;;;;;;;8.86;96.53;94430.81;5054670;28;20229;-76
2021/12/28 03:14:18;;;;;;;12.27;9.65;;;;;;;8.58;97.62;94425.09;5053497;28;20251;-76
2021/12/28 03:16:45;;;;;;;17.83;11.43;;;;;;;8.59;97.99;94431.81;5055210;28;20298;-75
2021/12/28 03:19:12;;;;;;;13.13;10.23;;;;;;;8.47;98.63;94432.22;5054034;28;20210;-76
2021/12/28 03:21:40;;;;;;;15.43;10.57;;;;;;;8.69;98.42;94437.34;5054483;28;20265;-75
2021/12/28 03:24:08;;;;;;;17.23;11.48;;;;;;;8.74;97.17;94436.31;5052835;28;21139;-76
2021/12/28 03:26:35;;;;;;;13.88;10.57;;;;;;;8.65;98.05;94433.28;5053947;28;20271;-75
2021/12/28 03:29:04;;;;;;;15.85;10.98;;;;;;;8.67;97.53;94429.78;5055377;28;20301;-75
2021/12/28 03:31:31;;;;;;;14.32;10.88;;;;;;;8.78;97.71;94427.72;5052907;28;20198;-74
2021/12/28 03:33:58;;;;;;;13.30;9.95;;;;;;;8.83;97.01;94420.78;5054429;28;20206;-75
2021/12/28 03:36:29;;;;;;;11.68;9.98;;;;;;;8.93;95.46;94410.28;5053487;28;20231;-75
2021/12/28 03:38:56;;;;;;;13.70;10.27;;;;;;;8.90;95.96;94412.94;5052479;28;20297;-77
2021/12/28 03:41:24;;;;;;;15.18;10.68;;;;;;;8.56;97.23;94416.72;5053683;28;20253;-74
2021/12/28 03:43:53;;;;;;;15.38;10.95;;;;;;;8.41;98.87;94424.88;5052446;28;20722;-75
2021/12/28 03:46:24;;;;;;;13.48;10.60;;;;;;;8.45;98.79;94428.91;5056344;28;20760;-75
2021/12/28 03:48:51;;;;;;;15.57;11.05;;;;;;;8.26;100.00;94432.94;5057656;28;20646;-75
2021/12/28 03:51:18;;;;;;;14.73;11.02;;;;;;;8.12;100.00;94424.13;5057174;28;20207;-74
2021/12/28 03:53:46;;;;;;;20.50;13.57;;;;;;;8.12;100.00;94421.59;5057918;28;20194;-74
2021/12/28 03:56:13;;;;;;;20.95;14.35;;;;;;;8.11;100.00;94432.59;5058264;28;20605;-75
2021/12/28 03:58:42;;;;;;;21.20;14.52;;;;;;;8.48;99.67;94433.88;5057072;28;20724;-74
2021/12/28 04:01:10;;;;;;;23.17;15.32;;;;;;;8.45;98.35;94431.44;5057410;28;20203;-75
2021/12/28 04:03:38;;;;;;;24.35;13.85;;;;;;;8.49;98.16;94435.53;5056311;28;20210;-74
2021/12/28 04:06:08;;;;;;;26.67;14.85;;;;;;;8.44;99.03;94429.78;5054935;28;20576;-74
2021/12/28 04:08:36;;;;;;;21.85;15.65;;;;;;;8.11;100.00;94439.38;5055299;28;20207;-75
2021/12/28 04:11:14;;;;;;;27.17;16.65;;;;;;;8.15;99.87;94441.75;5056407;28;20709;-75
2021/12/28 04:13:44;;;;;;;26.15;16.33;;;;;;;8.09;100.00;94438.59;5054945;28;20264;-75
2021/12/28 04:16:11;;;;;;;23.77;15.95;;;;;;;7.97;100.00;94437.28;5056102;28;20230;-75
2021/12/28 04:18:39;;;;;;;21.33;14.02;;;;;;;7.97;100.00;94439.81;5055118;28;20993;-74
2021/12/28 04:21:06;;;;;;;21.30;14.85;;;;;;;8.09;100.00;94439.41;5057609;28;20211;-75
2021/12/28 04:23:33;;;;;;;22.00;13.95;;;;;;;8.26;100.00;94445.59;5057332;28;20210;-75
2021/12/28 04:25:59;;;;;;;22.85;13.23;;;;;;;8.27;100.00;94439.66;5057523;28;20285;-75
2021/12/28 04:28:26;;;;;;;22.48;14.10;;;;;;;8.20;99.96;94439.88;5056653;28;20201;-75
2021/12/28 04:30:53;;;;;;;22.48;13.70;;;;;;;8.32;99.90;94442.88;5057359;28;20206;-75
2021/12/28 04:33:20;;;;;;;25.42;14.57;;;;;;;8.42;98.99;94437.44;5056203;28;20225;-75
2021/12/28 04:35:49;;;;;;;21.73;14.40;;;;;;;8.55;98.36;94435.31;5056672;28;20317;-75
2021/12/28 04:38:16;;;;;;;18.38;13.35;;;;;;;8.53;97.29;94439.63;5056828;28;20634;-74
2021/12/28 04:40:43;;;;;;;19.85;13.10;;;;;;;8.67;97.14;94444.16;5057470;28;20206;-75
2021/12/28 04:43:11;;;;;;;21.15;14.38;;;;;;;8.50;97.23;94445.59;5056578;28;20352;-75
2021/12/28 04:45:38;;;;;;;18.55;13.98;;;;;;;8.30;97.64;94444.63;5055980;28;20211;-74
2021/12/28 04:48:07;;;;;;;22.48;14.32;;;;;;;7.88;100.00;94447.72;5056219;28;20213;-75
2021/12/28 04:50:37;;;;;;;26.55;14.63;;;;;;;8.32;99.88;94442.88;5057216;28;20259;-75
2021/12/28 04:53:08;;;;;;;23.92;13.80;;;;;;;8.39;98.27;94447.72;5055820;28;20210;-75
2021/12/28 04:55:36;;;;;;;22.08;14.38;;;;;;;8.29;98.57;94442.97;5055876;28;20202;-75
2021/12/28 04:58:03;;;;;;;26.67;14.57;;;;;;;8.32;99.18;94438.66;5056669;28;20234;-75
2021/12/28 05:00:30;;;;;;;20.40;13.48;;;;;;;8.51;97.79;94441.38;5056638;28;20256;-75
2021/12/28 05:02:57;;;;;;;22.33;14.07;;;;;;;8.63;97.01;94437.59;5056777;28;20255;-75
2021/12/28 05:05:24;;;;;;;23.45;13.13;;;;;;;8.54;97.01;94443.78;5057175;28;20199;-76
2021/12/28 05:07:51;;;;;;;25.35;13.65;;;;;;;8.67;96.44;94439.94;5056093;28;20198;-75
2021/12/28 05:10:19;;;;;;;26.08;15.85;;;;;;;8.32;97.86;94437.81;5057027;28;20202;-75
2021/12/28 05:12:46;;;;;;;24.85;14.38;;;;;;;8.24;98.75;94439.75;5055197;28;20283;-75
2021/12/28 05:15:13;;;;;;;22.40;14.98;;;;;;;8.17;99.80;94439.13;5057284;28;20198;-75
2021/12/28 05:17:40;;;;;;;22.85;14.40;;;;;;;8.24;98.88;94440.59;5054441;28;20300;-75
2021/12/28 05:20:08;;;;;;;21.63;15.38;;;;;;;8.19;99.11;94445.81;5054991;28;20213;-76
2021/12/28 05:22:35;;;;;;;22.27;15.02;;;;;;;8.32;99.20;94448.78;5055366;28;20206;-75
2021/12/28 05:25:02;;;;;;;21.60;14.60;;;;;;;8.35;98.23;94445.31;5054746;28;20211;-75
2021/12/28 05:27:30;;;;;;;20.30;14.43;;;;;;;8.39;97.81;94450.25;5055936;28;20210;-76
2021/12/28 05:29:57;;;;;;;25.90;14.13;;;;;;;8.38;97.79;94451.13;5055126;28;20195;-75
2021/12/28 05:32:24;;;;;;;21.52;13.98;;;;;;;8.36;98.07;94449.50;5056669;28;20215;-76
2021/12/28 05:34:50;;;;;;;23.48;13.45;;;;;;;8.38;97.91;94446.06;5054807;28;20202;-76
2021/12/28 05:37:17;;;;;;;22.25;13.75;;;;;;;8.36;97.23;94449.50;5054967;28;20287;-75
2021/12/28 05:39:44;;;;;;;19.73;13.80;;;;;;;8.02;97.87;94455.69;5053545;28;20202;-75
2021/12/28 05:42:15;;;;;;;22.25;14.27;;;;;;;8.03;98.29;94457.34;5054327;28;20202;-76
2021/12/28 05:44:43;;;;;;;18.63;13.60;;;;;;;8.10;98.06;94461.31;5052688;28;20199;-75
2021/12/28 05:47:10;;;;;;;22.60;14.38;;;;;;;8.10;98.48;94461.31;5052868;28;20234;-76
2021/12/28 05:49:37;;;;;;;23.42;15.02;;;;;;;8.25;98.31;94459.13;5054899;28;20256;-75
2021/12/28 05:52:04;;;;;;;25.35;14.70;;;;;;;8.38;97.39;94463.78;5054359;28;20198;-76
2021/12/28 05:54:31;;;;;;;22.40;15.23;;;;;;;8.27;97.14;94452.31;5053932;28;20692;-76
2021/12/28 05:56:58;;;;;;;24.02;15.27;;;;;;;8.25;97.67;94454.06;5056242;28;20230;-76
2021/12/28 05:59:25;;;;;;;26.75;16.52;;;;;;;8.36;96.42;94464.69;5054361;28;20704;-75
2021/12/28 06:01:53;;;;;;;27.98;15.60;;;;;;;8.21;96.75;94460.94;5055943;28;21507;-76
2021/12/28 06:04:20;;;;;;;22.90;15.93;;;;;;;8.17;97.71;94469.50;5053881;28;20203;-76
2021/12/28 06:06:47;;;;;;;33.33;17.00;;;;;;;8.13;97.89;94468.00;5055622;28;20207;-76
2021/12/28 06:09:14;;;;;;;23.55;15.68;;;;;;;8.22;98.05;94467.66;5054133;28;21273;-76
2021/12/28 06:11:40;;;;;;;25.35;17.63;;;;;;;8.37;98.01;94466.34;5055379;28;20238;-76
2021/12/28 06:14:08;;;;;;;25.73;15.48;;;;;;;8.43;97.01;94461.06;5055889;28;20222;-76
2021/12/28 06:16:35;;;;;;;30.38;17.15;;;;;;;8.52;95.49;94458.22;5056130;28;20287;-76
2021/12/28 06:19:04;;;;;;;25.48;16.52;;;;;;;8.45;96.07;94465.19;5054912;28;20225;-76
2021/12/28 06:21:31;;;;;;;27.60;17.05;;;;;;;8.55;95.17;94475.84;5053880;28;20206;-76
2021/12/28 06:23:59;;;;;;;36.30;20.77;;;;;;;8.90;99.06;94459.38;5056336;28;20233;-67
2021/12/28 06:26:26;;;;;;;30.80;17.02;;;;;;;9.63;100.00;94465.91;5053770;28;20203;-68
2021/12/28 06:28:53;;;;;;;30.77;17.92;;;;;;;9.93;97.05;94461.28;5054725;28;20233;-75
2021/12/28 06:31:19;;;;;;;28.52;14.93;;;;;;;9.83;92.66;94466.75;5054994;28;20207;-76
2021/12/28 06:33:46;;;;;;;26.23;16.85;;;;;;;9.83;89.00;94473.56;5054487;28;20292;-76
2021/12/28 06:36:14;;;;;;;26.67;15.90;;;;;;;9.27;89.66;94468.97;5054361;28;20214;-75
2021/12/28 06:38:41;;;;;;;25.05;17.35;;;;;;;9.28;90.22;94468.09;5054625;28;20323;-76
2021/12/28 06:41:08;;;;;;;25.70;16.80;;;;;;;9.21;89.97;94474.25;5053300;28;20680;-75
2021/12/28 06:43:35;;;;;;;28.45;17.90;;;;;;;8.99;91.05;94470.88;5053104;28;20746;-75
2021/12/28 06:46:02;;;;;;;26.52;17.92;;;;;;;8.69;92.05;94476.16;5055642;28;20206;-75
2021/12/28 06:48:29;;;;;;;30.92;17.77;;;;;;;8.61;93.59;94484.94;5053637;28;20270;-75
2021/12/28 06:50:56;;;;;;;32.80;19.92;;;;;;;8.42;94.19;94490.63;5054944;28;20203;-74
2021/12/28 06:53:24;;;;;;;38.08;20.88;;;;;;;8.20;95.68;94490.50;5054015;28;20203;-75
2021/12/28 06:55:50;;;;;;;34.08;20.92;;;;;;;8.10;96.18;94494.22;5053916;28;20684;-75
2021/12/28 06:58:17;;;;;;;39.30;20.83;;;;;;;8.27;96.04;94496.19;5054783;28;20226;-74
2021/12/28 07:00:46;;;;;;;34.22;19.98;;;;;;;8.46;94.77;94496.41;5054705;28;20220;-74
2021/12/28 07:03:12;;;;;;;30.25;18.80;;;;;;;8.69;93.61;94493.06;5052981;28;20298;-74
2021/12/28 07:05:39;;;;;;;33.20;20.00;;;;;;;8.88;92.81;94493.25;5053776;28;20259;-74
2021/12/28 07:08:06;;;;;;;31.65;19.08;;;;;;;9.24;92.16;94501.22;5054098;28;20198;-75
2021/12/28 07:10:36;;;;;;;31.77;17.08;;;;;;;9.42;89.60;94475.97;5053603;28;20203;-75
2021/12/28 07:13:04;;;;;;;27.60;17.30;;;;;;;9.48;89.41;94492.69;5053103;28;20781;-75
2021/12/28 07:15:31;;;;;;;30.92;17.30;;;;;;;9.32;89.91;94489.91;5053651;28;20203;-75
2021/12/28 07:17:58;;;;;;;33.13;18.65;;;;;;;9.22;90.91;94496.19;5054298;28;20270;-75
2021/12/28 07:20:24;;;;;;;29.48;19.42;;;;;;;9.14;91.50;94500.75;5061092;28;20199;-74
2021/12/28 07:22:51;;;;;;;31.58;19.77;;;;;;;9.11;91.57;94496.59;5059662;28;20210;-75
2021/12/28 07:25:18;;;;;;;36.88;21.80;;;;;;;9.25;91.27;94501.16;5061645;28;20206;-75
2021/12/28 07:27:47;;;;;;;33.30;18.50;;;;;;;9.17;91.01;94496.34;5059598;28;20696;-74
2021/12/28 07:30:14;;;;;;;27.13;17.58;;;;;;;8.71;93.00;94511.56;5058439;28;20198;-75
2021/12/28 07:32:42;;;;;;;46.80;27.52;;;;;;;8.44;94.59;94508.28;5058648;28;20290;-76
2021/12/28 07:35:12;;;;;;;32.00;19.90;;;;;;;8.32;96.33;94504.47;5058786;28;20252;-75
2021/12/28 07:37:40;;;;;;;28.33;17.83;;;;;;;8.23;97.34;94499.69;5059679;28;20775;-75
2021/12/28 07:40:08;;;;;;;33.88;18.45;;;;;;;8.45;97.06;94512.47;5059286;28;20285;-75
2021/12/28 07:42:35;;;;;;;30.05;18.48;;;;;;;8.63;96.24;94503.44;5060496;28;20263;-75
2021/12/28 07:45:04;;;;;;;34.35;19.33;;;;;;;8.81;95.83;94507.84;5059935;28;20202;-74
2021/12/28 07:47:31;;;;;;;29.33;20.10;;;;;;;8.98;95.25;94487.78;5060972;28;20206;-74
2021/12/28 07:49:58;;;;;;;38.08;22.70;;;;;;;9.24;93.86;94496.13;5042553;28;20677;-76
2021/12/28 07:52:25;;;;;;;34.13;21.85;;;;;;;9.85;91.80;94507.31;5060924;28;20239;-75
2021/12/28 07:54:51;;;;;;;30.27;20.55;;;;;;;10.19;89.24;94504.25;5060929;28;20255;-74
2021/12/28 07:57:18;;;;;;;29.13;19.90;;;;;;;10.12;87.81;94502.84;5060916;28;20289;-75
2021/12/28 07:59:45;;;;;;;41.25;22.85;;;;;;;10.10;88.47;94495.28;5059197;28;20686;-75
2021/12/28 08:02:13;;;;;;;35.78;21.42;;;;;;;10.82;86.07;94494.81;5060111;28;20207;-75
2021/12/28 08:04:40;;;;;;;31.77;19.23;;;;;;;11.20;83.14;94508.38;5060360;28;20755;-75
2021/12/28 08:07:06;;;;;;;30.13;20.52;;;;;;;11.11;82.68;94511.34;5059273;28;20256;-75
2021/12/28 08:09:33;;;;;;;33.03;19.50;;;;;;;10.51;85.33;94502.94;5061265;28;20198;-75
2021/12/28 08:12:00;;;;;;;31.10;18.85;;;;;;;10.54;85.73;94510.41;5059253;28;20285;-75
2021/12/28 08:14:27;;;;;;;27.25;17.88;;;;;;;10.72;85.37;94513.88;5060815;28;20211;-75
2021/12/28 08:16:54;;;;;;;25.00;16.83;;;;;;;11.15;83.08;94510.28;5059407;28;20202;-75
2021/12/28 08:19:22;;;;;;;22.83;16.20;;;;;;;11.69;80.97;94516.31;5061151;28;20256;-75
2021/12/28 08:21:49;;;;;;;26.70;17.08;;;;;;;11.80;79.89;94502.22;5059168;28;20205;-75
2021/12/28 08:24:16;;;;;;;26.35;17.33;;;;;;;11.59;79.80;94500.66;5060622;28;20251;-75
2021/12/28 08:26:43;;;;;;;27.35;16.75;;;;;;;11.36;81.28;94501.72;5059184;28;20211;-75
2021/12/28 08:29:10;;;;;;;35.95;21.48;;;;;;;11.59;81.01;94509.13;5060653;28;20202;-75
2021/12/28 08:31:37;;;;;;;26.98;17.92;;;;;;;12.40;77.60;94501.88;5056421;28;20374;-74
2021/12/28 08:34:05;;;;;;;30.73;19.85;;;;;;;13.79;72.86;94498.03;5056430;28;20248;-75
2021/12/28 08:36:33;;;;;;;35.70;20.75;;;;;;;15.06;68.08;94501.81;5057430;28;20206;-75
2021/12/28 08:38:59;;;;;;;26.73;17.45;;;;;;;16.35;63.35;94488.56;5055584;28;20222;-75
2021/12/28 08:41:26;;;;;;;35.33;21.63;;;;;;;17.57;58.97;94481.13;5056860;28;20584;-75
2021/12/28 08:43:53;;;;;;;26.25;16.83;;;;;;;18.16;57.42;94478.66;5055305;28;22173;-75
2021/12/28 08:46:20;;;;;;;33.35;19.25;;;;;;;18.73;55.30;94488.22;5057230;28;20606;-75
2021/12/28 08:48:47;;;;;;;20.52;14.02;;;;;;;18.27;55.75;94481.28;5055557;28;20927;-75
2021/12/28 08:51:14;;;;;;;27.77;16.95;;;;;;;17.27;58.03;94478.13;5055286;28;20630;-75
2021/12/28 08:53:42;;;;;;;26.10;17.48;;;;;;;15.87;61.96;94480.53;5056127;28;20244;-75
2021/12/28 08:56:09;;;;;;;21.45;13.27;;;;;;;13.98;68.46;94480.75;5056669;28;20730;-75
2021/12/28 08:58:36;;;;;;;20.35;13.60;;;;;;;13.01;72.54;94483.47;5057050;28;20781;-76
2021/12/28 09:01:03;;;;;;;32.85;16.35;;;;;;;12.38;75.75;94485.84;5052159;28;20206;-76
2021/12/28 09:03:30;;;;;;;19.67;13.98;;;;;;;12.16;77.40;94474.16;5054481;28;20202;-76
2021/12/28 09:05:57;;;;;;;21.52;16.33;;;;;;;12.39;76.91;94484.94;5056394;28;20199;-76
2021/12/28 09:08:23;;;;;;;41.30;22.80;;;;;;;12.57;76.63;94476.38;5054377;28;20207;-76
2021/12/28 09:10:52;;;;;;;24.42;16.95;;;;;;;12.78;75.26;94475.28;5055361;28;20642;-76
2021/12/28 09:13:19;;;;;;;36.25;19.65;;;;;;;13.65;73.75;94475.78;5056936;28;20260;-77
2021/12/28 09:15:47;;;;;;;14.18;11.63;;;;;;;14.25;68.64;94471.53;5056293;28;21045;-76
2021/12/28 09:18:15;;;;;;;18.25;11.75;;;;;;;15.07;65.52;94475.31;5051692;28;20930;-76
2021/12/28 09:20:42;;;;;;;15.15;11.38;;;;;;;15.34;65.33;94473.63;5052736;28;20207;-77
2021/12/28 09:23:10;;;;;;;19.05;13.65;;;;;;;15.56;63.92;94466.28;5052757;28;20199;-77
2021/12/28 09:25:40;;;;;;;41.58;24.33;;;;;;;14.59;67.13;94467.06;5052940;28;20677;-77
2021/12/28 09:28:09;;;;;;;29.40;20.42;;;;;;;13.62;70.79;94469.09;5051898;28;20256;-76
2021/12/28 09:30:37;;;;;;;30.23;19.92;;;;;;;13.59;70.92;94461.66;5054419;28;20199;-76
2021/12/28 09:33:04;;;;;;;29.13;19.90;;;;;;;13.57;70.84;94463.44;5055007;28;20299;-76
2021/12/28 09:35:31;;;;;;;28.83;19.63;;;;;;;13.53;72.46;94468.81;5056596;28;20650;-76
2021/12/28 09:37:58;;;;;;;30.02;19.30;;;;;;;13.65;71.78;94474.94;5054580;28;20219;-76
2021/12/28 09:40:25;;;;;;;28.25;20.13;;;;;;;13.61;71.75;94459.78;5055208;28;20264;-75
2021/12/28 09:42:52;;;;;;;39.22;24.73;;;;;;;13.87;70.94;94460.91;5054870;28;20284;-75
2021/12/28 09:45:20;;;;;;;26.75;19.38;;;;;;;14.06;70.30;94455.63;5055316;28;20206;-76
2021/12/28 09:47:47;;;;;;;5.97;5.38;;;;;;;13.42;70.18;94448.94;5055895;28;20253;-76
2021/12/28 09:50:17;;;;;;;10.45;8.07;;;;;;;13.33;70.37;94444.38;5054422;28;20748;-75
2021/12/28 09:52:45;;;;;;;10.77;7.10;;;;;;;12.97;72.26;94442.00;5055303;28;20267;-76
2021/12/28 09:55:14;;;;;;;9.10;6.80;;;;;;;12.82;72.68;94448.75;5055851;28;20214;-76
2021/12/28 09:57:41;;;;;;;7.40;6.15;;;;;;;12.56;72.88;94444.16;5054696;28;20198;-76
2021/12/28 10:00:10;;;;;;;8.02;7.32;;;;;;;12.32;73.75;94447.94;5054474;28;20499;-75
2021/12/28 10:02:38;;;;;;;8.93;8.13;;;;;;;12.20;74.44;94457.84;5055033;28;20206;-76
2021/12/28 10:05:07;;;;;;;10.18;8.25;;;;;;;12.29;74.36;94458.28;5054306;28;20207;-76
2021/12/28 10:07:37;;;;;;;8.32;7.55;;;;;;;12.52;74.08;94435.84;5054749;28;20668;-76
2021/12/28 10:10:08;;;;;;;15.18;8.55;;;;;;;12.62;73.83;94454.00;5055863;28;20202;-76
2021/12/28 10:12:37;;;;;;;10.02;9.02;;;;;;;12.53;73.76;94446.84;5054004;28;20830;-76
2021/12/28 10:15:08;;;;;;;10.88;8.80;;;;;;;12.64;73.50;94443.75;5056058;28;20202;-76
2021/12/28 10:17:36;;;;;;;13.40;9.60;;;;;;;12.88;73.67;94445.03;5054821;28;20215;-76
2021/12/28 10:20:09;;;;;;;10.77;8.65;;;;;;;13.01;73.32;94440.94;5054979;28;20210;-76
2021/12/28 10:22:39;;;;;;;15.45;9.60;;;;;;;13.32;72.15;94432.50;5054826;28;20214;-76
2021/12/28 10:25:09;;;;;;;11.30;8.07;;;;;;;13.33;71.27;94439.25;5055397;28;20630;-76
2021/12/28 10:27:39;;;;;;;9.40;8.40;;;;;;;13.39;71.61;94440.63;5053636;28;20210;-76
2021/12/28 10:30:13;;;;;;;10.70;8.35;;;;;;;13.19;72.52;94431.50;5055867;28;20198;-74
2021/12/28 10:32:41;;;;;;;9.90;8.57;;;;;;;12.97;72.89;94430.97;5053486;28;20222;-75
2021/12/28 10:35:15;;;;;;;9.75;8.27;;;;;;;12.96;72.79;94430.16;5053325;28;20623;-75
2021/12/28 10:37:47;;;;;;;11.18;8.23;;;;;;;12.89;72.99;94432.19;5052993;28;20589;-75
2021/12/28 10:40:20;;;;;;;9.20;8.25;;;;;;;12.66;73.55;94432.56;5054091;28;20636;-76
2021/12/28 10:42:51;;;;;;;10.57;8.15;;;;;;;12.68;73.24;94428.22;5055448;28;20625;-77
2021/12/28 10:45:20;;;;;;;161.73;70.15;;;;;;;13.11;74.67;94423.44;5053349;28;20202;-77
2021/12/28 10:47:48;;;;;;;20.75;15.48;;;;;;;13.42;72.72;94422.59;5054939;28;22271;-74
2021/12/28 10:50:39;;;;;;;17.63;13.07;;;;;;;13.43;73.23;94429.34;5055038;28;20248;-74
2021/12/28 10:53:14;;;;;;;20.63;15.00;;;;;;;13.05;74.28;94428.84;5054604;28;20199;-73
2021/12/28 10:55:45;;;;;;;20.65;15.55;;;;;;;12.94;75.38;94426.84;5053522;28;20586;-76
2021/12/28 10:58:23;;;;;;;17.08;14.00;;;;;;;12.70;76.05;94423.03;5051866;28;20617;-76
2021/12/28 11:00:51;;;;;;;23.77;14.82;;;;;;;12.76;75.99;94417.63;5051995;28;20205;-77
2021/12/28 11:03:26;;;;;;;22.15;15.23;;;;;;;12.74;75.63;94412.63;5052005;28;20594;-77
2021/12/28 11:05:56;;;;;;;17.00;13.25;;;;;;;12.52;77.16;94409.53;5053779;28;20692;-78
2021/12/28 11:08:25;;;;;;;22.17;12.82;;;;;;;12.52;76.19;94406.97;5052043;28;20199;-77
2021/12/28 11:10:55;;;;;;;18.13;12.63;;;;;;;12.41;76.44;94407.53;5052389;28;22145;-75
2021/12/28 11:13:25;;;;;;;13.88;11.27;;;;;;;12.76;75.93;94410.81;5054248;28;20198;-77
2021/12/28 11:15:52;;;;;;;16.80;11.15;;;;;;;12.94;74.81;94407.28;5053727;28;20202;-78
2021/12/28 11:18:23;;;;;;;16.20;12.15;;;;;;;13.04;73.98;94406.81;5053481;28;20226;-77
2021/12/28 11:20:51;;;;;;;13.13;10.77;;;;;;;13.14;73.66;94407.94;5054714;28;20213;-76
2021/12/28 11:23:21;;;;;;;17.20;11.70;;;;;;;13.26;73.25;94407.31;5055281;28;20206;-78
2021/12/28 11:26:02;;;;;;;12.18;10.35;;;;;;;13.44;72.56;94406.31;5053654;28;20252;-78
2021/12/28 11:28:29;;;;;;;14.70;10.07;;;;;;;13.33;71.55;94402.72;5053694;28;20589;-77